Time;durP1;ratioP1;P1;durP2;ratioP2;P2;SDS_P1;SDS_P2;PMS_P1;PMS_P2;Temp;Humidity;BMP_temperature;BMP_pressure;BME280_temperature;BME280_humidity;BME280_pressure;Samples;Min_cycle;Max_cycle;Signal;HPM_P1;HPM_P2
2022/01/12 00:00:04;;;;;;;792.60;746.92;;;;;;;-1.36;71.06;103168.44;686085;28;22518;-70
2022/01/12 00:00:32;;;;;;;793.47;747.72;;;;;;;-1.35;70.69;103159.56;681684;28;137911;-70
2022/01/12 00:00:53;;;;;;;816.60;769.42;;;;;;;-1.35;70.66;103164.88;685632;28;44383;-70
2022/01/12 00:01:16;;;;;;;798.22;752.10;;;;;;;-1.36;70.65;103160.50;682913;28;22231;-70
2022/01/12 00:01:37;;;;;;;784.38;738.95;;;;;;;-1.38;70.76;103151.69;680385;28;68445;-70
2022/01/12 00:02:00;;;;;;;777.13;732.33;;;;;;;-1.38;70.50;103160.53;683101;28;24325;-70
2022/01/12 00:02:21;;;;;;;766.72;722.88;;;;;;;-1.37;70.70;103161.41;680964;28;69480;-70
2022/01/12 00:02:42;;;;;;;788.72;743.33;;;;;;;-1.36;70.63;103156.06;682916;28;23515;-70
2022/01/12 00:03:04;;;;;;;796.85;750.80;;;;;;;-1.33;70.55;103157.78;683890;28;23333;-70
2022/01/12 00:03:25;;;;;;;790.30;744.75;;;;;;;-1.34;70.55;103153.38;685963;28;21989;-69
2022/01/12 00:03:46;;;;;;;782.42;737.40;;;;;;;-1.34;70.62;103161.31;685511;28;22460;-69
2022/01/12 00:04:08;;;;;;;772.80;728.47;;;;;;;-1.35;70.52;103163.13;685421;28;45257;-69
2022/01/12 00:04:29;;;;;;;775.95;731.53;;;;;;;-1.35;70.45;103159.56;684698;28;47298;-69
2022/01/12 00:04:52;;;;;;;804.47;758.03;;;;;;;-1.35;70.56;103163.13;685451;28;23540;-70
2022/01/12 00:05:14;;;;;;;802.65;756.30;;;;;;;-1.37;70.55;103159.59;684328;28;70211;-69
2022/01/12 00:05:36;;;;;;;799.05;752.95;;;;;;;-1.35;70.47;103163.13;686614;28;1637;-70
2022/01/12 00:05:58;;;;;;;789.88;744.30;;;;;;;-1.36;70.56;103161.34;686827;28;1521;-70
2022/01/12 00:06:19;;;;;;;781.97;736.97;;;;;;;-1.37;70.60;103164.91;685123;28;46177;-69
2022/01/12 00:06:40;;;;;;;783.97;738.87;;;;;;;-1.36;70.60;103163.16;685209;28;21399;-69
2022/01/12 00:07:01;;;;;;;816.22;768.97;;;;;;;-1.36;70.52;103163.16;687276;28;45068;-70
2022/01/12 00:07:22;;;;;;;817.10;769.80;;;;;;;-1.38;70.46;103155.25;689498;28;819;-70
2022/01/12 00:07:46;;;;;;;807.70;761.03;;;;;;;-1.38;70.45;103162.28;688486;28;23273;-70
2022/01/12 00:08:08;;;;;;;800.65;754.50;;;;;;;-1.40;70.60;103159.69;685173;28;68430;-70
2022/01/12 00:08:31;;;;;;;792.13;746.45;;;;;;;-1.40;70.50;103161.47;685687;28;46396;-70
2022/01/12 00:08:54;;;;;;;782.88;737.72;;;;;;;-1.41;70.64;103157.06;683838;28;69426;-70
2022/01/12 00:09:23;;;;;;;823.08;775.47;;;;;;;-1.39;70.44;103160.59;682077;28;60333;-69
2022/01/12 00:09:44;;;;;;;844.65;795.78;;;;;;;-1.39;70.53;103157.94;683529;28;22233;-69
2022/01/12 00:10:06;;;;;;;863.67;813.60;;;;;;;-1.39;70.60;103155.28;686057;28;21554;-69
2022/01/12 00:10:27;;;;;;;855.17;805.67;;;;;;;-1.40;70.69;103162.34;685737;28;44399;-70
2022/01/12 00:10:49;;;;;;;848.15;799.05;;;;;;;-1.38;70.59;103168.50;686083;28;22299;-70
2022/01/12 00:11:10;;;;;;;863.45;813.38;;;;;;;-1.38;70.45;103163.19;685084;28;46183;-70
2022/01/12 00:11:32;;;;;;;868.53;818.15;;;;;;;-1.39;70.66;103165.88;685817;28;21534;-70
2022/01/12 00:11:54;;;;;;;861.80;811.72;;;;;;;-1.39;70.71;103163.22;685352;28;46369;-70
2022/01/12 00:12:16;;;;;;;851.80;802.38;;;;;;;-1.38;70.62;103164.94;685203;28;46259;-70
2022/01/12 00:12:37;;;;;;;845.83;796.80;;;;;;;-1.39;70.63;103172.03;685494;28;46567;-70
2022/01/12 00:12:59;;;;;;;857.42;807.72;;;;;;;-1.40;70.65;103162.34;686669;28;21557;-69
2022/01/12 00:13:20;;;;;;;872.72;822.03;;;;;;;-1.39;70.62;103164.09;683453;28;21520;-69
2022/01/12 00:13:42;;;;;;;865.00;814.72;;;;;;;-1.39;70.66;103166.75;683741;28;46438;-70
2022/01/12 00:14:06;;;;;;;861.97;811.97;;;;;;;-1.40;70.62;103175.59;684422;28;22477;-70
2022/01/12 00:14:27;;;;;;;840.83;791.97;;;;;;;-1.41;70.58;103171.22;680556;28;113543;-70
2022/01/12 00:14:49;;;;;;;835.03;786.70;;;;;;;-1.42;70.55;103172.13;683642;28;22527;-70
2022/01/12 00:15:10;;;;;;;854.58;805.10;;;;;;;-1.42;70.69;103165.97;683617;28;46201;-70
2022/01/12 00:15:33;;;;;;;848.70;799.53;;;;;;;-1.40;70.69;103175.59;686012;28;22533;-69
2022/01/12 00:15:54;;;;;;;838.92;790.42;;;;;;;-1.40;70.66;103161.47;686345;28;44537;-69
2022/01/12 00:16:15;;;;;;;836.67;788.38;;;;;;;-1.39;70.86;103172.03;685146;28;46367;-70
2022/01/12 00:16:36;;;;;;;832.53;784.40;;;;;;;-1.39;70.81;103164.09;685798;28;23371;-70
2022/01/12 00:16:59;;;;;;;853.63;804.15;;;;;;;-1.39;70.81;103165.88;685947;28;44378;-70
2022/01/12 00:17:20;;;;;;;854.67;805.25;;;;;;;-1.39;70.91;103173.84;684675;28;69397;-70
2022/01/12 00:17:41;;;;;;;849.20;800.10;;;;;;;-1.40;70.79;103170.28;685864;28;23499;-70
2022/01/12 00:18:03;;;;;;;845.28;796.38;;;;;;;-1.38;70.87;103172.91;686865;28;22215;-70
2022/01/12 00:18:25;;;;;;;857.83;808.22;;;;;;;-1.39;70.92;103163.22;686021;28;23401;-69
2022/01/12 00:18:50;;;;;;;880.65;829.63;;;;;;;-1.38;70.94;103172.91;685662;28;45347;-69
2022/01/12 00:19:12;;;;;;;875.40;824.50;;;;;;;-1.41;70.97;103168.56;681867;28;138070;-70
2022/01/12 00:19:33;;;;;;;870.90;820.45;;;;;;;-1.39;70.79;103160.59;686130;28;22376;-69
2022/01/12 00:19:54;;;;;;;874.45;823.70;;;;;;;-1.40;70.84;103162.34;686776;28;21601;-69
2022/01/12 00:20:16;;;;;;;880.80;829.65;;;;;;;-1.40;70.88;103166.78;685466;28;46336;-70
2022/01/12 00:20:37;;;;;;;865.67;815.35;;;;;;;-1.40;70.84;103167.63;685954;28;21583;-70
2022/01/12 00:20:58;;;;;;;869.50;819.05;;;;;;;-1.39;70.79;103166.75;686629;28;22214;-69
2022/01/12 00:21:19;;;;;;;858.38;808.55;;;;;;;-1.39;71.01;103169.41;686079;28;23286;-70
2022/01/12 00:21:41;;;;;;;861.38;811.58;;;;;;;-1.38;70.98;103167.59;685205;28;22400;-69
2022/01/12 00:22:02;;;;;;;890.42;838.72;;;;;;;-1.39;70.83;103171.19;685851;28;44390;-69
2022/01/12 00:22:23;;;;;;;868.50;818.13;;;;;;;-1.39;70.73;103169.41;686331;28;23395;-70
2022/01/12 00:22:44;;;;;;;860.03;810.05;;;;;;;-1.40;70.88;103165.00;685808;28;23522;-70
2022/01/12 00:23:06;;;;;;;853.13;803.72;;;;;;;-1.38;70.87;103170.25;686111;28;22407;-69
2022/01/12 00:23:28;;;;;;;846.72;797.63;;;;;;;-1.38;70.93;103165.84;685201;28;44409;-69
2022/01/12 00:23:49;;;;;;;839.65;790.92;;;;;;;-1.38;70.73;103162.28;685038;28;45271;-68
2022/01/12 00:24:11;;;;;;;820.83;773.45;;;;;;;-1.39;70.84;103158.78;686239;28;23561;-69
2022/01/12 00:24:52;;;;;;;851.13;801.92;;;;;;;-1.40;70.79;103157.03;685522;28;44326;-69
2022/01/12 00:25:30;;;;;;;861.10;811.03;;;;;;;-1.40;70.87;103156.19;681831;28;137374;-69
2022/01/12 00:26:02;;;;;;;866.25;815.95;;;;;;;-1.42;70.94;103152.69;682256;28;137727;-70
2022/01/12 00:26:37;;;;;;;860.47;810.60;;;;;;;-1.41;70.98;103146.47;684644;28;136906;-70
2022/01/12 00:33:10;;;;;;;996.33;937.65;;;;;;;-1.45;71.15;103143.91;682855;28;137385;-69
2022/01/12 00:33:31;;;;;;;1002.45;943.65;;;;;;;-1.45;71.12;103143.91;686197;28;90321;-69
2022/01/12 00:33:53;;;;;;;998.08;939.58;;;;;;;-1.44;71.27;103150.09;688826;28;23335;-69
2022/01/12 00:34:15;;;;;;;978.42;921.13;;;;;;;-1.47;71.12;103148.38;685174;28;45262;-70
2022/01/12 00:34:38;;;;;;;966.50;909.92;;;;;;;-1.45;71.22;103153.63;681276;28;92262;-70
2022/01/12 00:34:59;;;;;;;959.33;903.17;;;;;;;-1.46;71.31;103144.81;682885;28;22244;-69
2022/01/12 00:35:20;;;;;;;980.20;922.83;;;;;;;-1.46;71.33;103151.88;682950;28;21517;-69
2022/01/12 00:35:44;;;;;;;983.90;926.40;;;;;;;-1.46;71.36;103142.19;684537;28;23493;-70
2022/01/12 00:36:06;;;;;;;979.58;922.28;;;;;;;-1.48;71.43;103149.28;682277;28;91202;-70
2022/01/12 00:36:28;;;;;;;973.67;916.67;;;;;;;-1.48;71.43;103151.06;685476;28;45253;-69
2022/01/12 00:36:49;;;;;;;969.08;912.45;;;;;;;-1.47;71.44;103148.38;680683;28;67481;-70
2022/01/12 00:37:12;;;;;;;967.03;910.40;;;;;;;-1.48;71.29;103151.94;681247;28;22405;-69
2022/01/12 00:37:33;;;;;;;989.55;931.58;;;;;;;-1.48;71.33;103146.63;679423;28;69295;-70
2022/01/12 00:37:54;;;;;;;994.20;935.80;;;;;;;-1.48;71.28;103146.63;678480;29;21512;-69
2022/01/12 00:38:17;;;;;;;994.10;935.70;;;;;;;-1.49;71.49;103144.91;679301;29;22409;-70
2022/01/12 00:38:38;;;;;;;992.22;934.13;;;;;;;-1.50;71.28;103147.59;678662;28;45236;-69
2022/01/12 00:39:01;;;;;;;987.88;930.03;;;;;;;-1.52;71.56;103139.69;683784;28;23588;-69
2022/01/12 00:39:23;;;;;;;1008.92;949.63;;;;;;;-1.50;71.59;103142.28;684075;28;70116;-71
2022/01/12 00:39:44;;;;;;;1009.80;950.47;;;;;;;-1.51;71.62;103148.50;684588;28;67348;-71
2022/01/12 00:40:07;;;;;;;1004.25;945.35;;;;;;;-1.51;71.69;103143.19;685210;28;46301;-69
2022/01/12 00:40:28;;;;;;;1001.75;943.00;;;;;;;-1.51;71.72;103143.19;684449;28;44356;-70
2022/01/12 00:40:53;;;;;;;995.53;937.25;;;;;;;-1.51;71.62;103144.06;684778;28;23360;-70
2022/01/12 00:41:15;;;;;;;992.17;933.95;;;;;;;-1.50;71.66;103142.28;682483;28;113798;-70
2022/01/12 00:41:38;;;;;;;1010.58;951.22;;;;;;;-1.52;71.68;103138.78;683415;28;46279;-69
2022/01/12 00:42:00;;;;;;;1009.33;950.08;;;;;;;-1.48;71.70;103145.78;683926;28;46393;-69
2022/01/12 00:42:23;;;;;;;1001.58;942.80;;;;;;;-1.46;71.75;103133.34;681052;28;46465;-69
2022/01/12 00:42:44;;;;;;;995.00;936.67;;;;;;;-1.45;71.61;103141.25;678974;29;70592;-70
2022/01/12 00:43:06;;;;;;;1013.28;953.75;;;;;;;-1.47;71.68;103132.47;678238;28;43701;-69
2022/01/12 00:43:30;;;;;;;1024.63;964.22;;;;;;;-1.46;71.73;103138.63;681790;28;21484;-68
2022/01/12 00:43:57;;;;;;;1020.78;960.78;;;;;;;-1.47;71.57;103136.91;678148;28;92224;-69
2022/01/12 00:44:23;;;;;;;1012.85;953.30;;;;;;;-1.49;71.90;103141.38;678935;28;138131;-70
2022/01/12 00:44:46;;;;;;;1006.65;947.65;;;;;;;-1.48;71.64;103138.69;679918;28;136149;-70
2022/01/12 00:45:09;;;;;;;1006.60;947.58;;;;;;;-1.45;71.65;103140.38;681952;28;67501;-69
2022/01/12 00:45:31;;;;;;;1022.67;962.42;;;;;;;-1.43;71.86;103137.69;682474;28;69407;-70
2022/01/12 00:45:53;;;;;;;1025.20;964.90;;;;;;;-1.44;71.66;103134.19;684369;28;46297;-70
2022/01/12 00:46:14;;;;;;;1009.35;950.10;;;;;;;-1.45;71.96;103135.94;685079;28;22383;-70
2022/01/12 00:46:38;;;;;;;965.35;908.88;;;;;;;-1.43;71.73;103135.91;685252;28;46249;-70
2022/01/12 00:46:59;;;;;;;967.30;910.67;;;;;;;-1.42;71.71;103136.81;681804;28;111213;-69
2022/01/12 00:47:21;;;;;;;971.58;914.55;;;;;;;-1.43;71.79;103140.34;684750;28;45245;-70
2022/01/12 00:47:42;;;;;;;969.10;912.35;;;;;;;-1.47;71.63;103137.78;684359;28;46281;-70
2022/01/12 00:48:04;;;;;;;955.85;899.83;;;;;;;-1.46;71.75;103141.28;682914;28;22246;-69
2022/01/12 00:48:26;;;;;;;941.58;886.38;;;;;;;-1.48;71.61;103143.13;683039;28;23413;-70
2022/01/12 00:48:47;;;;;;;956.30;900.25;;;;;;;-1.45;71.74;103140.38;679985;28;46191;-70
2022/01/12 00:49:08;;;;;;;978.03;920.60;;;;;;;-1.46;71.66;103136.88;680196;29;22411;-70
2022/01/12 00:49:29;;;;;;;971.83;914.88;;;;;;;-1.46;71.73;103143.94;678912;29;21517;-70
2022/01/12 00:49:50;;;;;;;964.17;907.78;;;;;;;-1.45;71.89;103138.59;679368;29;22394;-70
2022/01/12 00:50:12;;;;;;;958.08;902.08;;;;;;;-1.46;71.82;103139.53;680770;29;22359;-69
2022/01/12 00:50:33;;;;;;;952.45;896.65;;;;;;;-1.46;71.91;103136.88;680546;28;45275;-70
2022/01/12 00:50:55;;;;;;;964.85;908.40;;;;;;;-1.47;71.81;103137.78;683176;28;21517;-70
2022/01/12 00:51:17;;;;;;;986.40;928.53;;;;;;;-1.48;71.98;103136.03;682963;28;44401;-71
2022/01/12 00:51:39;;;;;;;970.38;913.50;;;;;;;-1.46;71.91;103134.22;685087;28;28213;-69
2022/01/12 00:52:00;;;;;;;969.85;913.00;;;;;;;-1.42;71.77;103142.09;684746;28;46001;-70
2022/01/12 00:52:21;;;;;;;969.50;912.70;;;;;;;-1.42;71.88;103134.16;683541;28;23403;-69
2022/01/12 00:52:43;;;;;;;961.30;905.10;;;;;;;-1.41;71.81;103131.47;683335;28;23402;-70
2022/01/12 00:53:04;;;;;;;951.90;896.10;;;;;;;-1.40;71.92;103137.63;682981;28;46330;-70
2022/01/12 00:53:25;;;;;;;966.22;909.58;;;;;;;-1.39;71.87;103139.38;683249;28;17205;-69
2022/01/12 00:53:46;;;;;;;971.40;914.38;;;;;;;-1.39;72.00;103132.28;680752;29;23515;-70
2022/01/12 00:54:08;;;;;;;963.75;907.22;;;;;;;-1.37;71.88;103140.19;678874;29;23266;-69
2022/01/12 00:54:31;;;;;;;953.60;897.78;;;;;;;-1.36;71.79;103142.81;678444;29;44395;-70
2022/01/12 00:54:52;;;;;;;951.05;895.35;;;;;;;-1.36;71.99;103137.50;677863;29;69058;-71
2022/01/12 00:55:13;;;;;;;966.63;909.95;;;;;;;-1.36;71.85;103142.81;681038;29;22405;-69
2022/01/12 00:55:35;;;;;;;986.38;928.40;;;;;;;-1.37;71.87;103141.06;681612;28;23485;-74
2022/01/12 00:55:57;;;;;;;979.90;922.33;;;;;;;-1.38;71.92;103144.63;685604;28;42722;-70
2022/01/12 00:56:18;;;;;;;974.08;916.88;;;;;;;-1.37;71.96;103137.53;685109;28;46327;-70
2022/01/12 00:56:39;;;;;;;970.13;913.13;;;;;;;-1.38;71.93;103139.34;682284;28;22415;-69
2022/01/12 00:57:00;;;;;;;966.03;909.35;;;;;;;-1.38;71.91;103139.34;686549;28;22454;-70
2022/01/12 00:57:22;;;;;;;977.77;920.57;;;;;;;-1.37;71.86;103145.50;684415;28;22469;-70
2022/01/12 00:57:43;;;;;;;1001.17;942.28;;;;;;;-1.37;71.98;103141.06;682856;28;44498;-69
2022/01/12 00:58:05;;;;;;;997.30;938.63;;;;;;;-1.36;71.96;103148.09;680012;28;46305;-70
2022/01/12 00:58:26;;;;;;;987.30;929.35;;;;;;;-1.37;72.00;103138.41;680208;29;23429;-69
2022/01/12 00:58:48;;;;;;;984.25;926.47;;;;;;;-1.37;71.88;103145.50;682455;28;22389;-69
2022/01/12 00:59:09;;;;;;;983.47;925.67;;;;;;;-1.37;71.91;103140.19;683191;28;45199;-69
2022/01/12 00:59:30;;;;;;;1001.78;942.85;;;;;;;-1.36;71.89;103141.94;687174;28;21246;-69
2022/01/12 00:59:51;;;;;;;1027.25;966.75;;;;;;;-1.35;71.97;103143.66;687036;28;22360;-70
2022/01/12 01:00:14;;;;;;;1041.07;979.58;;;;;;;-1.33;71.99;103139.22;687380;28;22350;-70
2022/01/12 01:00:36;;;;;;;1053.15;990.80;;;;;;;-1.35;71.90;103147.19;684716;28;69437;-70
2022/01/12 01:00:57;;;;;;;1048.15;986.25;;;;;;;-1.32;71.98;103146.22;684620;28;22186;-70
2022/01/12 01:01:20;;;;;;;1043.05;981.55;;;;;;;-1.30;71.83;103147.94;685751;28;23298;-70
2022/01/12 01:01:41;;;;;;;1042.85;981.30;;;;;;;-1.27;71.77;103146.97;682914;28;93045;-69
2022/01/12 01:02:03;;;;;;;1059.20;996.38;;;;;;;-1.27;71.86;103147.88;685930;28;22390;-70
2022/01/12 01:02:25;;;;;;;1056.35;993.75;;;;;;;-1.30;71.96;103147.94;685272;28;45474;-70
2022/01/12 01:02:47;;;;;;;1060.78;997.92;;;;;;;-1.30;71.64;103141.75;684704;28;22402;-70
2022/01/12 01:03:09;;;;;;;1057.82;995.13;;;;;;;-1.30;71.76;103145.28;685116;28;46310;-70
2022/01/12 01:03:33;;;;;;;1056.60;994.17;;;;;;;-1.30;71.69;103142.63;683757;28;92068;-70
2022/01/12 01:03:56;;;;;;;1060.78;997.92;;;;;;;-1.30;71.85;103144.41;682434;28;69685;-70
2022/01/12 01:04:18;;;;;;;1075.32;999.90;;;;;;;-1.32;71.92;103139.16;683336;28;69430;-69
2022/01/12 01:04:39;;;;;;;1074.88;999.90;;;;;;;-1.32;71.84;103139.16;684567;28;22366;-70
2022/01/12 01:05:01;;;;;;;1071.93;999.90;;;;;;;-1.35;71.83;103144.56;683419;28;21530;-70
2022/01/12 01:05:25;;;;;;;1064.80;999.90;;;;;;;-1.32;71.93;103144.47;679779;29;69403;-70
2022/01/12 01:05:46;;;;;;;1060.28;997.58;;;;;;;-1.32;71.89;103144.47;677569;28;92204;-70
2022/01/12 01:06:09;;;;;;;1061.25;998.42;;;;;;;-1.33;71.80;103140.06;680721;28;21315;-68
2022/01/12 01:06:35;;;;;;;1071.43;999.90;;;;;;;-1.34;71.83;103146.28;678526;28;90480;-70
2022/01/12 01:06:56;;;;;;;1059.22;996.47;;;;;;;-1.32;71.94;103149.78;674588;29;91906;-70
2022/01/12 01:07:17;;;;;;;1051.35;989.25;;;;;;;-1.31;71.86;103145.34;677866;29;22372;-70
2022/01/12 01:07:41;;;;;;;1046.95;985.15;;;;;;;-1.31;71.98;103147.97;679012;28;90740;-69
2022/01/12 01:08:03;;;;;;;1056.97;994.42;;;;;;;-1.29;72.00;103151.44;679691;28;44406;-70
2022/01/12 01:08:25;;;;;;;1067.88;999.90;;;;;;;-1.31;71.75;103145.34;678863;28;69480;-69
2022/01/12 01:08:50;;;;;;;1066.40;999.90;;;;;;;-1.32;71.80;103140.94;681229;28;22203;-70
2022/01/12 01:09:15;;;;;;;1060.20;997.42;;;;;;;-1.35;71.84;103141.00;679385;28;138641;-69
2022/01/12 01:09:44;;;;;;;1047.63;985.75;;;;;;;-1.36;71.80;103141.94;681021;28;67458;-68
2022/01/12 01:10:11;;;;;;;1044.03;982.47;;;;;;;-1.37;71.86;103146.34;678136;28;137994;-68
2022/01/12 01:10:45;;;;;;;1059.72;997.03;;;;;;;-1.37;71.96;103143.69;680032;28;136390;-68
2022/01/12 01:11:07;;;;;;;1046.55;984.85;;;;;;;-1.37;72.13;103140.19;678947;28;160274;-68
2022/01/12 01:11:28;;;;;;;1045.15;983.63;;;;;;;-1.38;72.10;103149.03;681167;28;68329;-68
2022/01/12 01:11:53;;;;;;;1039.53;978.33;;;;;;;-1.39;72.05;103142.03;679327;28;114524;-68
2022/01/12 01:12:14;;;;;;;1055.50;993.10;;;;;;;-1.40;72.13;103146.44;686458;28;21632;-68
2022/01/12 01:12:36;;;;;;;1058.38;995.78;;;;;;;-1.41;72.27;103144.72;686239;28;22386;-68
2022/01/12 01:13:01;;;;;;;1053.40;991.22;;;;;;;-1.42;72.17;103140.31;679839;28;115125;-68
2022/01/12 01:13:34;;;;;;;1044.35;982.85;;;;;;;-1.43;72.28;103140.34;679973;29;67420;-68
2022/01/12 01:13:58;;;;;;;1045.55;983.60;;;;;;;-1.46;72.39;103136.88;674010;29;137415;-68
2022/01/12 01:14:33;;;;;;;1068.40;999.90;;;;;;;-1.46;72.50;103139.53;677286;29;69167;-70
2022/01/12 01:15:03;;;;;;;1065.47;999.90;;;;;;;-1.47;72.46;103142.22;673534;29;137715;-68
2022/01/12 01:15:40;;;;;;;1060.25;997.35;;;;;;;-1.47;72.53;103140.44;674373;29;137841;-68
2022/01/12 01:16:10;;;;;;;1056.18;993.80;;;;;;;-1.45;72.72;103143.03;678188;28;137791;-68
2022/01/12 01:16:48;;;;;;;1063.43;999.90;;;;;;;-1.45;72.52;103143.03;677978;28;160416;-69
2022/01/12 01:25:28;;;;;;;1060.38;997.58;;;;;;;-1.42;72.53;103150.06;676371;28;156527;-68
2022/01/12 01:25:36;;;;;;;1057.15;994.45;;;;;;;-1.39;72.77;103149.97;680176;28;138547;-68
2022/01/12 01:25:58;;;;;;;1062.72;999.65;;;;;;;-1.39;72.71;103155.28;679774;28;67259;-68
2022/01/12 01:26:19;;;;;;;1071.00;999.90;;;;;;;-1.41;72.84;103150.00;683999;28;22409;-68
2022/01/12 01:26:42;;;;;;;1078.82;999.90;;;;;;;-1.42;72.83;103153.56;678473;28;69347;-68
2022/01/12 01:27:04;;;;;;;1079.05;999.90;;;;;;;-1.42;72.87;103152.69;679099;29;21536;-68
2022/01/12 01:27:26;;;;;;;1082.78;999.90;;;;;;;-1.42;72.99;103158.00;679134;29;34933;-68
2022/01/12 01:27:47;;;;;;;1083.50;999.90;;;;;;;-1.45;72.83;103151.00;679345;29;22466;-68
2022/01/12 01:28:10;;;;;;;1073.70;999.90;;;;;;;-1.45;72.85;103151.00;679521;29;46152;-68
2022/01/12 01:28:31;;;;;;;1086.65;999.90;;;;;;;-1.45;72.85;103151.84;680217;28;67485;-68
2022/01/12 01:28:53;;;;;;;1096.35;999.90;;;;;;;-1.46;72.97;103147.47;679683;29;21514;-69
2022/01/12 01:29:16;;;;;;;1096.00;999.90;;;;;;;-1.47;73.09;103143.06;680509;29;44332;-68
2022/01/12 01:29:37;;;;;;;1088.78;999.90;;;;;;;-1.46;73.02;103157.19;679403;29;45336;-68
2022/01/12 01:30:00;;;;;;;1086.85;999.90;;;;;;;-1.46;73.07;103152.78;680600;28;46182;-68
2022/01/12 01:30:21;;;;;;;1082.38;999.90;;;;;;;-1.48;73.14;103149.28;681158;28;44634;-68
2022/01/12 01:30:45;;;;;;;1085.32;999.90;;;;;;;-1.47;73.24;103152.81;683333;28;69264;-68
2022/01/12 01:31:06;;;;;;;1094.43;999.90;;;;;;;-1.47;73.25;103148.38;685665;28;46412;-69
2022/01/12 01:31:31;;;;;;;1097.32;999.90;;;;;;;-1.47;73.25;103145.72;681485;28;46299;-68
2022/01/12 01:31:53;;;;;;;1094.15;999.90;;;;;;;-1.47;73.27;103151.03;677893;28;89647;-68
2022/01/12 01:32:14;;;;;;;1083.57;999.90;;;;;;;-1.45;73.32;103154.50;680954;29;46262;-68
2022/01/12 01:32:37;;;;;;;1080.07;999.90;;;;;;;-1.47;73.19;103150.16;679584;28;69447;-69
2022/01/12 01:33:04;;;;;;;1077.90;999.90;;;;;;;-1.48;73.29;103154.59;681204;28;44222;-68
2022/01/12 01:33:27;;;;;;;1095.50;999.90;;;;;;;-1.50;73.30;103148.47;675441;29;137844;-68
2022/01/12 01:33:49;;;;;;;1094.80;999.90;;;;;;;-1.51;73.22;103151.16;679105;29;67485;-69
2022/01/12 01:34:13;;;;;;;1095.25;999.90;;;;;;;-1.50;73.46;103150.25;680025;29;23470;-69
2022/01/12 01:34:42;;;;;;;1089.93;999.90;;;;;;;-1.50;73.40;103147.59;676888;29;115521;-68
2022/01/12 01:35:06;;;;;;;1084.80;999.90;;;;;;;-1.48;73.49;103148.41;675005;29;138000;-68
2022/01/12 01:35:30;;;;;;;1094.50;999.90;;;;;;;-1.50;73.65;103150.25;676617;29;90615;-68
2022/01/12 01:35:55;;;;;;;1098.57;999.90;;;;;;;-1.50;73.61;103151.09;681150;28;92033;-68
2022/01/12 01:36:19;;;;;;;1094.78;999.90;;;;;;;-1.47;73.57;103150.16;677336;28;136263;-68
2022/01/12 01:36:43;;;;;;;1097.85;999.90;;;;;;;-1.48;73.52;103148.41;679752;28;22375;-68
2022/01/12 01:37:04;;;;;;;1092.55;999.90;;;;;;;-1.49;73.50;103151.97;677889;28;115145;-68
2022/01/12 01:37:25;;;;;;;1093.38;999.90;;;;;;;-1.48;73.59;103154.59;680544;29;22392;-68
2022/01/12 01:37:47;;;;;;;1096.50;999.90;;;;;;;-1.47;73.67;103145.72;681364;28;21654;-68
2022/01/12 01:38:10;;;;;;;1099.65;999.90;;;;;;;-1.46;73.60;103147.47;679505;28;44296;-68
2022/01/12 01:38:31;;;;;;;1100.95;999.90;;;;;;;-1.43;73.63;103146.50;681421;28;69566;-68
2022/01/12 01:38:52;;;;;;;1101.72;999.90;;;;;;;-1.41;73.67;103149.13;679461;29;21530;-68
2022/01/12 01:39:16;;;;;;;1098.20;999.90;;;;;;;-1.39;73.76;103144.66;677515;29;20884;-68
2022/01/12 01:39:38;;;;;;;1102.57;999.90;;;;;;;-1.37;73.74;103153.44;679734;28;67479;-69
2022/01/12 01:40:01;;;;;;;1101.97;999.90;;;;;;;-1.36;73.69;103145.44;681575;28;67474;-68
2022/01/12 01:40:23;;;;;;;1096.38;999.90;;;;;;;-1.35;73.55;103148.97;681569;28;68961;-68
2022/01/12 01:40:44;;;;;;;1095.30;999.90;;;;;;;-1.35;73.64;103147.19;682531;28;23491;-68
2022/01/12 01:41:05;;;;;;;1095.10;999.90;;;;;;;-1.34;73.49;103145.41;680972;29;22472;-68
2022/01/12 01:41:27;;;;;;;1100.13;999.90;;;;;;;-1.35;73.51;103141.91;681735;28;44374;-68
2022/01/12 01:41:50;;;;;;;1100.38;999.90;;;;;;;-1.34;73.67;103150.72;680291;28;46499;-69
2022/01/12 01:42:17;;;;;;;1092.28;999.90;;;;;;;-1.35;73.65;103141.91;682453;28;68336;-68
2022/01/12 01:42:55;;;;;;;1093.35;999.90;;;;;;;-1.34;73.67;103146.28;678114;28;138342;-68
2022/01/12 01:43:24;;;;;;;1094.65;999.90;;;;;;;-1.35;73.63;103136.59;676290;29;135975;-69
2022/01/12 01:44:08;;;;;;;1097.50;999.90;;;;;;;-1.33;73.59;103136.56;677982;28;137441;-69
2022/01/12 01:53:18;;;;;;;1095.93;999.90;;;;;;;-1.31;73.55;103140.03;674239;28;137759;-69
2022/01/12 01:53:22;;;;;;;1095.95;999.90;;;;;;;-1.18;73.66;103136.13;674528;29;75132;-68
2022/01/12 01:53:44;;;;;;;1100.60;999.90;;;;;;;-1.16;73.62;103142.28;679438;28;69504;-68
2022/01/12 01:54:07;;;;;;;1101.50;999.90;;;;;;;-1.16;73.59;103138.72;678626;29;46577;-68
2022/01/12 01:54:28;;;;;;;1107.55;999.90;;;;;;;-1.17;73.47;103131.72;680143;28;10487;-68
2022/01/12 01:54:50;;;;;;;1100.93;999.90;;;;;;;-1.17;73.08;103139.66;681418;28;45254;-68
2022/01/12 01:55:13;;;;;;;1098.90;999.90;;;;;;;-1.16;73.60;103139.63;682534;28;46268;-69
2022/01/12 01:55:35;;;;;;;1104.03;999.90;;;;;;;-1.15;73.48;103141.34;683361;28;67456;-68
2022/01/12 01:55:56;;;;;;;1106.00;999.90;;;;;;;-1.14;73.55;103142.22;687397;28;15946;-69
2022/01/12 01:56:19;;;;;;;1111.55;999.90;;;;;;;-1.15;73.40;103129.88;685025;28;22399;-69
2022/01/12 01:56:40;;;;;;;1107.18;999.90;;;;;;;-1.13;73.44;103136.00;678453;28;69225;-69
2022/01/12 01:57:01;;;;;;;1100.70;999.90;;;;;;;-1.13;73.50;103141.28;685829;28;21502;-69
2022/01/12 01:57:24;;;;;;;1101.43;999.90;;;;;;;-1.15;73.31;103138.69;685868;28;45043;-68
2022/01/12 01:57:45;;;;;;;1108.72;999.90;;;;;;;-1.12;73.49;103138.59;682876;28;46402;-69
2022/01/12 01:58:09;;;;;;;1103.78;999.90;;;;;;;-1.13;73.41;103144.84;684817;28;69403;-68
2022/01/12 01:58:32;;;;;;;1108.82;999.90;;;;;;;-1.12;73.43;103146.56;686536;28;92297;-69
2022/01/12 01:58:55;;;;;;;1107.90;999.90;;;;;;;-1.12;73.47;103140.41;685103;28;44367;-68
2022/01/12 01:59:19;;;;;;;1102.70;999.90;;;;;;;-1.12;73.32;103145.69;677281;29;92237;-68
2022/01/12 01:59:43;;;;;;;1108.97;999.90;;;;;;;-1.14;73.40;103143.09;674228;29;115103;-68
2022/01/12 02:00:06;;;;;;;1110.90;999.90;;;;;;;-1.14;73.36;103143.09;677345;29;23446;-68
2022/01/12 02:00:35;;;;;;;1111.65;999.90;;;;;;;-1.15;73.35;103137.81;674715;29;159026;-68
2022/01/12 02:01:02;;;;;;;1112.40;999.90;;;;;;;-1.16;73.41;103136.97;675118;29;137429;-69
2022/01/12 02:01:27;;;;;;;1108.68;999.90;;;;;;;-1.16;73.32;103141.38;675303;29;139570;-68
2022/01/12 02:01:54;;;;;;;1103.82;999.90;;;;;;;-1.17;73.48;103139.66;676115;28;138137;-68
2022/01/12 02:02:15;;;;;;;1105.18;999.90;;;;;;;-1.19;73.39;103136.16;681488;29;22314;-68
2022/01/12 02:02:36;;;;;;;1109.60;999.90;;;;;;;-1.18;73.29;103137.91;676112;29;22424;-68
2022/01/12 02:03:00;;;;;;;1110.85;999.90;;;;;;;-1.19;73.34;103142.34;677113;29;22341;-68
2022/01/12 02:03:30;;;;;;;1100.55;999.90;;;;;;;-1.22;73.54;103130.94;676442;28;161265;-68
2022/01/12 02:03:57;;;;;;;1105.30;999.90;;;;;;;-1.20;73.51;103137.94;679200;28;90713;-69
2022/01/12 02:04:19;;;;;;;1103.68;999.90;;;;;;;-1.18;73.51;103140.56;680046;28;115075;-69
2022/01/12 02:04:40;;;;;;;1108.05;999.90;;;;;;;-1.18;73.74;103140.56;683677;28;46318;-68
2022/01/12 02:05:02;;;;;;;1106.35;999.90;;;;;;;-1.19;73.62;103141.47;687164;28;13162;-68
2022/01/12 02:05:23;;;;;;;1105.88;999.90;;;;;;;-1.18;73.71;103141.41;683841;28;46375;-68